sensor_id;sensor_type;location;lat;lon;timestamp;pressure;altitude;pressure_sealevel;temperature;humidity
55685;BME280;41883;49.544;8.646;2022-07-12T00:02:12;101239.38;;;17.43;nan
55685;BME280;41883;49.544;8.646;2022-07-12T00:04:38;101228.41;;;17.38;nan
55685;BME280;41883;49.544;8.646;2022-07-12T00:07:03;101234.44;;;17.32;nan
55685;BME280;41883;49.544;8.646;2022-07-12T00:09:29;101234.31;;;17.25;nan
55685;BME280;41883;49.544;8.646;2022-07-12T00:11:54;101232.53;;;17.17;nan
55685;BME280;41883;49.544;8.646;2022-07-12T00:14:20;101231.56;;;17.18;nan
55685;BME280;41883;49.544;8.646;2022-07-12T00:16:45;101233.19;;;17.19;nan
55685;BME280;41883;49.544;8.646;2022-07-12T00:19:11;101237.34;;;17.22;nan
55685;BME280;41883;49.544;8.646;2022-07-12T00:21:36;101237.19;;;17.24;nan
55685;BME280;41883;49.544;8.646;2022-07-12T00:24:01;101237.47;;;17.29;nan
55685;BME280;41883;49.544;8.646;2022-07-12T00:26:27;101233.31;;;17.26;nan
55685;BME280;41883;49.544;8.646;2022-07-12T00:28:52;101235.50;;;17.23;nan
55685;BME280;41883;49.544;8.646;2022-07-12T00:31:18;101239.25;;;17.13;nan
55685;BME280;41883;49.544;8.646;2022-07-12T00:33:43;101230.09;;;17.08;nan
55685;BME280;41883;49.544;8.646;2022-07-12T00:36:08;101229.66;;;17.04;nan
55685;BME280;41883;49.544;8.646;2022-07-12T00:38:34;101238.66;;;17.03;nan
55685;BME280;41883;49.544;8.646;2022-07-12T00:40:59;101226.31;;;17.02;nan
55685;BME280;41883;49.544;8.646;2022-07-12T00:43:24;101238.00;;;17.01;nan
55685;BME280;41883;49.544;8.646;2022-07-12T00:45:50;101222.31;;;16.98;nan
55685;BME280;41883;49.544;8.646;2022-07-12T00:48:16;101228.66;;;16.97;nan
55685;BME280;41883;49.544;8.646;2022-07-12T00:50:44;101225.34;;;16.95;nan
55685;BME280;41883;49.544;8.646;2022-07-12T00:53:10;101229.22;;;16.92;nan
55685;BME280;41883;49.544;8.646;2022-07-12T00:55:35;101221.72;;;16.88;nan
55685;BME280;41883;49.544;8.646;2022-07-12T00:58:01;101225.59;;;16.85;nan
55685;BME280;41883;49.544;8.646;2022-07-12T01:00:28;101221.75;;;16.80;nan
55685;BME280;41883;49.544;8.646;2022-07-12T01:02:55;101216.09;;;16.74;nan
55685;BME280;41883;49.544;8.646;2022-07-12T01:05:21;101213.28;;;16.68;nan
55685;BME280;41883;49.544;8.646;2022-07-12T01:07:46;101220.81;;;16.64;nan
55685;BME280;41883;49.544;8.646;2022-07-12T01:10:12;101213.50;;;16.58;nan
55685;BME280;41883;49.544;8.646;2022-07-12T01:12:37;101211.19;;;16.55;nan
55685;BME280;41883;49.544;8.646;2022-07-12T01:15:06;101210.00;;;16.58;nan
55685;BME280;41883;49.544;8.646;2022-07-12T01:17:32;101211.34;;;16.53;nan
55685;BME280;41883;49.544;8.646;2022-07-12T01:19:59;101211.19;;;16.47;nan
55685;BME280;41883;49.544;8.646;2022-07-12T01:22:30;101216.91;;;16.44;nan
55685;BME280;41883;49.544;8.646;2022-07-12T01:24:57;101210.88;;;16.42;nan
55685;BME280;41883;49.544;8.646;2022-07-12T01:27:22;101208.56;;;16.39;nan
55685;BME280;41883;49.544;8.646;2022-07-12T01:29:48;101216.59;;;16.39;nan
55685;BME280;41883;49.544;8.646;2022-07-12T01:32:14;101217.59;;;16.38;nan
55685;BME280;41883;49.544;8.646;2022-07-12T01:34:55;101215.25;;;16.34;nan
55685;BME280;41883;49.544;8.646;2022-07-12T01:37:22;101213.97;;;16.30;nan
55685;BME280;41883;49.544;8.646;2022-07-12T01:39:50;101217.97;;;16.26;nan
55685;BME280;41883;49.544;8.646;2022-07-12T01:42:16;101221.63;;;16.25;nan
55685;BME280;41883;49.544;8.646;2022-07-12T01:44:41;101224.81;;;16.21;nan
55685;BME280;41883;49.544;8.646;2022-07-12T01:47:07;101225.00;;;16.19;nan
55685;BME280;41883;49.544;8.646;2022-07-12T01:49:32;101217.66;;;16.13;nan
55685;BME280;41883;49.544;8.646;2022-07-12T01:51:58;101214.16;;;16.12;nan
55685;BME280;41883;49.544;8.646;2022-07-12T01:54:25;101218.19;;;16.08;nan
55685;BME280;41883;49.544;8.646;2022-07-12T01:56:51;101214.00;;;16.06;nan
55685;BME280;41883;49.544;8.646;2022-07-12T01:59:18;101216.03;;;16.04;nan
55685;BME280;41883;49.544;8.646;2022-07-12T02:01:44;101214.53;;;16.01;nan
55685;BME280;41883;49.544;8.646;2022-07-12T02:04:10;101219.19;;;15.99;nan
55685;BME280;41883;49.544;8.646;2022-07-12T02:06:35;101221.22;;;15.97;nan
55685;BME280;41883;49.544;8.646;2022-07-12T02:09:01;101213.72;;;15.92;nan
55685;BME280;41883;49.544;8.646;2022-07-12T02:11:26;101218.22;;;15.92;nan
55685;BME280;41883;49.544;8.646;2022-07-12T02:13:51;101217.38;;;15.91;nan
55685;BME280;41883;49.544;8.646;2022-07-12T02:16:17;101214.06;;;15.89;nan
55685;BME280;41883;49.544;8.646;2022-07-12T02:18:42;101221.06;;;15.90;nan
55685;BME280;41883;49.544;8.646;2022-07-12T02:21:08;101219.72;;;15.86;nan
55685;BME280;41883;49.544;8.646;2022-07-12T02:23:33;101216.75;;;15.81;nan
55685;BME280;41883;49.544;8.646;2022-07-12T02:25:58;101226.06;;;15.77;nan
55685;BME280;41883;49.544;8.646;2022-07-12T02:28:24;101218.56;;;15.73;nan
55685;BME280;41883;49.544;8.646;2022-07-12T02:30:49;101209.56;;;15.65;nan
55685;BME280;41883;49.544;8.646;2022-07-12T02:33:14;101217.06;;;15.62;nan
55685;BME280;41883;49.544;8.646;2022-07-12T02:35:41;101204.06;;;15.67;nan
55685;BME280;41883;49.544;8.646;2022-07-12T02:38:07;101206.75;;;15.50;nan
55685;BME280;41883;49.544;8.646;2022-07-12T02:40:32;101211.41;;;15.40;nan
55685;BME280;41883;49.544;8.646;2022-07-12T02:43:16;101211.41;;;15.32;nan
55685;BME280;41883;49.544;8.646;2022-07-12T02:45:41;101214.06;;;15.24;nan
55685;BME280;41883;49.544;8.646;2022-07-12T02:48:06;101223.56;;;15.18;nan
55685;BME280;41883;49.544;8.646;2022-07-12T02:50:31;101221.72;;;15.11;nan
55685;BME280;41883;49.544;8.646;2022-07-12T02:52:57;101227.03;;;15.02;nan
55685;BME280;41883;49.544;8.646;2022-07-12T02:55:22;101234.69;;;14.97;nan
55685;BME280;41883;49.544;8.646;2022-07-12T02:57:47;101236.34;;;14.90;nan
55685;BME280;41883;49.544;8.646;2022-07-12T03:00:14;101233.81;;;14.80;nan
55685;BME280;41883;49.544;8.646;2022-07-12T03:02:39;101244.94;;;14.76;nan
55685;BME280;41883;49.544;8.646;2022-07-12T03:05:05;101244.41;;;14.72;nan
55685;BME280;41883;49.544;8.646;2022-07-12T03:07:30;101242.09;;;14.69;nan
55685;BME280;41883;49.544;8.646;2022-07-12T03:09:56;101239.06;;;14.64;nan
55685;BME280;41883;49.544;8.646;2022-07-12T03:12:21;101244.88;;;14.59;nan
55685;BME280;41883;49.544;8.646;2022-07-12T03:14:46;101256.50;;;14.58;nan
55685;BME280;41883;49.544;8.646;2022-07-12T03:17:11;101260.31;;;14.56;nan
55685;BME280;41883;49.544;8.646;2022-07-12T03:19:37;101256.13;;;14.53;nan
55685;BME280;41883;49.544;8.646;2022-07-12T03:22:02;101263.28;;;14.53;nan
55685;BME280;41883;49.544;8.646;2022-07-12T03:24:27;101257.28;;;14.51;nan
55685;BME280;41883;49.544;8.646;2022-07-12T03:26:53;101263.28;;;14.53;nan
55685;BME280;41883;49.544;8.646;2022-07-12T03:29:18;101256.13;;;14.53;nan
55685;BME280;41883;49.544;8.646;2022-07-12T03:31:43;101254.63;;;14.51;nan
55685;BME280;41883;49.544;8.646;2022-07-12T03:34:08;101257.66;;;14.56;nan
55685;BME280;41883;49.544;8.646;2022-07-12T03:36:34;101258.69;;;14.63;nan
55685;BME280;41883;49.544;8.646;2022-07-12T03:38:59;101257.88;;;14.62;nan
55685;BME280;41883;49.544;8.646;2022-07-12T03:41:24;101261.00;;;14.58;nan
55685;BME280;41883;49.544;8.646;2022-07-12T03:43:49;101269.44;;;14.53;nan
55685;BME280;41883;49.544;8.646;2022-07-12T03:46:15;101270.09;;;14.47;nan
55685;BME280;41883;49.544;8.646;2022-07-12T03:48:40;101266.75;;;14.45;nan
55685;BME280;41883;49.544;8.646;2022-07-12T03:51:05;101271.25;;;14.44;nan
55685;BME280;41883;49.544;8.646;2022-07-12T03:53:30;101266.75;;;14.45;nan
55685;BME280;41883;49.544;8.646;2022-07-12T03:55:56;101263.41;;;14.43;nan
55685;BME280;41883;49.544;8.646;2022-07-12T03:58:21;101262.38;;;14.36;nan
55685;BME280;41883;49.544;8.646;2022-07-12T04:00:46;101268.00;;;14.33;nan
55685;BME280;41883;49.544;8.646;2022-07-12T04:03:12;101269.66;;;14.34;nan
55685;BME280;41883;49.544;8.646;2022-07-12T04:05:38;101276.81;;;14.33;nan
55685;BME280;41883;49.544;8.646;2022-07-12T04:08:03;101274.00;;;14.35;nan
55685;BME280;41883;49.544;8.646;2022-07-12T04:10:29;101276.66;;;14.35;nan
55685;BME280;41883;49.544;8.646;2022-07-12T04:12:54;101267.53;;;14.37;nan
55685;BME280;41883;49.544;8.646;2022-07-12T04:15:20;101271.53;;;14.41;nan
55685;BME280;41883;49.544;8.646;2022-07-12T04:17:45;101260.50;;;14.54;nan
55685;BME280;41883;49.544;8.646;2022-07-12T04:20:11;101258.22;;;14.68;nan
55685;BME280;41883;49.544;8.646;2022-07-12T04:22:37;101260.44;;;14.80;nan
55685;BME280;41883;49.544;8.646;2022-07-12T04:25:03;101260.44;;;14.89;nan
55685;BME280;41883;49.544;8.646;2022-07-12T04:27:28;101257.97;;;14.95;nan
55685;BME280;41883;49.544;8.646;2022-07-12T04:29:53;101261.81;;;15.01;nan
55685;BME280;41883;49.544;8.646;2022-07-12T04:32:19;101258.50;;;15.07;nan
55685;BME280;41883;49.544;8.646;2022-07-12T04:34:44;101261.84;;;15.09;nan
55685;BME280;41883;49.544;8.646;2022-07-12T04:37:09;101258.84;;;15.12;nan
55685;BME280;41883;49.544;8.646;2022-07-12T04:39:35;101264.66;;;15.16;nan
55685;BME280;41883;49.544;8.646;2022-07-12T04:42:00;101265.19;;;15.19;nan
55685;BME280;41883;49.544;8.646;2022-07-12T04:44:25;101270.19;;;15.22;nan
55685;BME280;41883;49.544;8.646;2022-07-12T04:46:51;101269.00;;;15.25;nan
55685;BME280;41883;49.544;8.646;2022-07-12T04:49:16;101274.03;;;15.28;nan
55685;BME280;41883;49.544;8.646;2022-07-12T04:51:41;101270.69;;;15.34;nan
55685;BME280;41883;49.544;8.646;2022-07-12T04:54:07;101273.69;;;15.39;nan
55685;BME280;41883;49.544;8.646;2022-07-12T04:56:32;101273.03;;;15.45;nan
55685;BME280;41883;49.544;8.646;2022-07-12T04:58:58;101278.72;;;15.50;nan
55685;BME280;41883;49.544;8.646;2022-07-12T05:01:23;101271.03;;;15.56;nan
55685;BME280;41883;49.544;8.646;2022-07-12T05:03:48;101274.72;;;15.63;nan
55685;BME280;41883;49.544;8.646;2022-07-12T05:06:14;101276.06;;;15.67;nan
55685;BME280;41883;49.544;8.646;2022-07-12T05:08:39;101277.25;;;15.73;nan
55685;BME280;41883;49.544;8.646;2022-07-12T05:11:05;101271.59;;;15.76;nan
55685;BME280;41883;49.544;8.646;2022-07-12T05:13:30;101283.91;;;15.85;nan
55685;BME280;41883;49.544;8.646;2022-07-12T05:15:56;101282.75;;;15.96;nan
55685;BME280;41883;49.544;8.646;2022-07-12T05:18:21;101288.03;;;16.04;nan
55685;BME280;41883;49.544;8.646;2022-07-12T05:20:47;101285.53;;;16.10;nan
55685;BME280;41883;49.544;8.646;2022-07-12T05:23:12;101288.69;;;16.22;nan
55685;BME280;41883;49.544;8.646;2022-07-12T05:25:37;101289.00;;;16.35;nan
55685;BME280;41883;49.544;8.646;2022-07-12T05:28:03;101296.31;;;16.50;nan
55685;BME280;41883;49.544;8.646;2022-07-12T05:30:28;101297.59;;;16.62;nan
55685;BME280;41883;49.544;8.646;2022-07-12T05:32:54;101293.03;;;16.79;nan
55685;BME280;41883;49.544;8.646;2022-07-12T05:35:19;101302.41;;;17.06;nan
55685;BME280;41883;49.544;8.646;2022-07-12T05:37:45;101308.81;;;17.28;nan
55685;BME280;41883;49.544;8.646;2022-07-12T05:40:10;101307.69;;;17.46;nan
55685;BME280;41883;49.544;8.646;2022-07-12T05:42:36;101308.81;;;17.51;nan
55685;BME280;41883;49.544;8.646;2022-07-12T05:45:01;101307.59;;;17.62;nan
55685;BME280;41883;49.544;8.646;2022-07-12T05:47:27;101312.16;;;17.76;nan
55685;BME280;41883;49.544;8.646;2022-07-12T05:49:53;101320.81;;;18.01;nan
55685;BME280;41883;49.544;8.646;2022-07-12T05:52:18;101317.56;;;18.44;nan
55685;BME280;41883;49.544;8.646;2022-07-12T05:55:03;101136.03;;;18.97;nan
55685;BME280;41883;49.544;8.646;2022-07-12T05:57:28;101171.03;;;19.39;nan
55685;BME280;41883;49.544;8.646;2022-07-12T05:59:53;101193.72;;;19.86;nan
55685;BME280;41883;49.544;8.646;2022-07-12T06:02:19;101320.63;;;20.36;nan
55685;BME280;41883;49.544;8.646;2022-07-12T06:04:44;101336.47;;;20.94;nan
55685;BME280;41883;49.544;8.646;2022-07-12T06:07:09;101336.63;;;21.34;nan
55685;BME280;41883;49.544;8.646;2022-07-12T06:09:35;101344.38;;;21.83;nan
55685;BME280;41883;49.544;8.646;2022-07-12T06:12:00;101344.63;;;22.29;nan
55685;BME280;41883;49.544;8.646;2022-07-12T06:14:25;101350.38;;;22.45;nan
55685;BME280;41883;49.544;8.646;2022-07-12T06:16:50;101354.06;;;22.64;nan
55685;BME280;41883;49.544;8.646;2022-07-12T06:19:16;101349.44;;;22.85;nan
55685;BME280;41883;49.544;8.646;2022-07-12T06:21:41;101348.50;;;23.18;nan
55685;BME280;41883;49.544;8.646;2022-07-12T06:24:06;101356.75;;;23.29;nan
55685;BME280;41883;49.544;8.646;2022-07-12T06:26:32;101353.53;;;23.46;nan
55685;BME280;41883;49.544;8.646;2022-07-12T06:28:57;101351.09;;;23.69;nan
55685;BME280;41883;49.544;8.646;2022-07-12T06:31:22;101346.44;;;24.08;nan
55685;BME280;41883;49.544;8.646;2022-07-12T06:33:51;101348.97;;;24.53;nan
55685;BME280;41883;49.544;8.646;2022-07-12T06:36:16;101348.13;;;24.71;nan
55685;BME280;41883;49.544;8.646;2022-07-12T06:38:41;101357.66;;;24.92;nan
55685;BME280;41883;49.544;8.646;2022-07-12T06:41:06;101355.50;;;25.31;nan
55685;BME280;41883;49.544;8.646;2022-07-12T06:43:32;101362.69;;;25.56;nan
55685;BME280;41883;49.544;8.646;2022-07-12T06:45:57;101357.84;;;25.58;nan
55685;BME280;41883;49.544;8.646;2022-07-12T06:48:22;101370.59;;;25.69;nan
55685;BME280;41883;49.544;8.646;2022-07-12T06:50:48;101374.28;;;25.75;nan
55685;BME280;41883;49.544;8.646;2022-07-12T06:53:14;101368.16;;;25.79;nan
55685;BME280;41883;49.544;8.646;2022-07-12T06:55:39;101370.66;;;25.93;nan
55685;BME280;41883;49.544;8.646;2022-07-12T06:58:04;101369.16;;;25.97;nan
55685;BME280;41883;49.544;8.646;2022-07-12T07:00:30;101369.97;;;26.09;nan
55685;BME280;41883;49.544;8.646;2022-07-12T07:02:56;101375.75;;;26.48;nan
55685;BME280;41883;49.544;8.646;2022-07-12T07:05:21;101374.22;;;26.76;nan
55685;BME280;41883;49.544;8.646;2022-07-12T07:07:47;101377.38;;;26.96;nan
55685;BME280;41883;49.544;8.646;2022-07-12T07:10:12;101379.78;;;27.21;nan
55685;BME280;41883;49.544;8.646;2022-07-12T07:12:38;101379.44;;;27.46;nan
55685;BME280;41883;49.544;8.646;2022-07-12T07:15:03;101379.69;;;27.45;nan
55685;BME280;41883;49.544;8.646;2022-07-12T07:17:29;101377.25;;;27.60;nan
55685;BME280;41883;49.544;8.646;2022-07-12T07:19:54;101378.78;;;27.85;nan
55685;BME280;41883;49.544;8.646;2022-07-12T07:22:19;101382.66;;;27.89;nan
55685;BME280;41883;49.544;8.646;2022-07-12T07:24:44;101380.19;;;27.87;nan
55685;BME280;41883;49.544;8.646;2022-07-12T07:27:11;101383.97;;;28.20;nan
55685;BME280;41883;49.544;8.646;2022-07-12T07:29:37;101382.13;;;28.43;nan
55685;BME280;41883;49.544;8.646;2022-07-12T07:32:20;101381.81;;;28.56;nan
55685;BME280;41883;49.544;8.646;2022-07-12T07:34:46;101374.72;;;28.77;nan
55685;BME280;41883;49.544;8.646;2022-07-12T07:37:11;101371.09;;;28.93;nan
55685;BME280;41883;49.544;8.646;2022-07-12T07:39:37;101363.41;;;29.07;nan
55685;BME280;41883;49.544;8.646;2022-07-12T07:42:02;101361.16;;;29.26;nan
55685;BME280;41883;49.544;8.646;2022-07-12T07:44:28;101365.88;;;29.36;nan
55685;BME280;41883;49.544;8.646;2022-07-12T07:46:53;101360.47;;;29.41;nan
55685;BME280;41883;49.544;8.646;2022-07-12T07:49:19;101357.56;;;29.48;nan
55685;BME280;41883;49.544;8.646;2022-07-12T07:51:44;101360.13;;;29.59;nan
55685;BME280;41883;49.544;8.646;2022-07-12T07:54:09;101358.31;;;30.02;nan
55685;BME280;41883;49.544;8.646;2022-07-12T07:56:34;101363.88;;;30.18;nan
55685;BME280;41883;49.544;8.646;2022-07-12T07:59:00;101360.00;;;30.09;nan
55685;BME280;41883;49.544;8.646;2022-07-12T08:01:25;101362.47;;;30.58;nan
55685;BME280;41883;49.544;8.646;2022-07-12T08:04:16;101359.47;;;30.49;nan
55685;BME280;41883;49.544;8.646;2022-07-12T08:06:43;101365.53;;;30.66;nan
55685;BME280;41883;49.544;8.646;2022-07-12T08:09:09;101364.34;;;31.00;nan
55685;BME280;41883;49.544;8.646;2022-07-12T08:11:35;101370.22;;;31.49;nan
55685;BME280;41883;49.544;8.646;2022-07-12T08:14:02;101365.84;;;31.64;nan
55685;BME280;41883;49.544;8.646;2022-07-12T08:16:28;101363.66;;;31.86;nan
55685;BME280;41883;49.544;8.646;2022-07-12T08:18:54;101366.66;;;32.21;nan
55685;BME280;41883;49.544;8.646;2022-07-12T08:21:19;101371.81;;;32.27;nan
55685;BME280;41883;49.544;8.646;2022-07-12T08:23:45;101372.13;;;31.80;nan
55685;BME280;41883;49.544;8.646;2022-07-12T08:26:10;101369.47;;;30.86;nan
55685;BME280;41883;49.544;8.646;2022-07-12T08:28:35;101377.13;;;30.41;nan
55685;BME280;41883;49.544;8.646;2022-07-12T08:31:01;101363.63;;;29.55;nan
55685;BME280;41883;49.544;8.646;2022-07-12T08:33:26;101369.91;;;29.28;nan
55685;BME280;41883;49.544;8.646;2022-07-12T08:35:51;101369.63;;;30.21;nan
55685;BME280;41883;49.544;8.646;2022-07-12T08:38:17;101371.97;;;30.98;nan
55685;BME280;41883;49.544;8.646;2022-07-12T08:40:43;101365.28;;;31.67;nan
55685;BME280;41883;49.544;8.646;2022-07-12T08:43:08;101366.69;;;31.95;nan
55685;BME280;41883;49.544;8.646;2022-07-12T08:45:34;101376.13;;;31.16;nan
55685;BME280;41883;49.544;8.646;2022-07-12T08:47:59;101367.88;;;30.95;nan
55685;BME280;41883;49.544;8.646;2022-07-12T08:50:25;101375.31;;;30.57;nan
55685;BME280;41883;49.544;8.646;2022-07-12T08:52:53;101369.31;;;31.13;nan
55685;BME280;41883;49.544;8.646;2022-07-12T08:55:25;101365.56;;;31.81;nan
55685;BME280;41883;49.544;8.646;2022-07-12T08:57:53;101364.34;;;31.10;nan
55685;BME280;41883;49.544;8.646;2022-07-12T09:00:20;101371.84;;;31.76;nan
55685;BME280;41883;49.544;8.646;2022-07-12T09:02:57;101366.66;;;31.64;nan
55685;BME280;41883;49.544;8.646;2022-07-12T09:05:24;101375.41;;;31.66;nan
55685;BME280;41883;49.544;8.646;2022-07-12T09:07:50;101368.56;;;31.94;nan
55685;BME280;41883;49.544;8.646;2022-07-12T09:10:16;101364.13;;;32.34;nan
55685;BME280;41883;49.544;8.646;2022-07-12T09:12:43;101361.19;;;33.06;nan
55685;BME280;41883;49.544;8.646;2022-07-12T09:15:19;101357.09;;;33.82;nan
55685;BME280;41883;49.544;8.646;2022-07-12T09:17:53;101359.53;;;34.13;nan
55685;BME280;41883;49.544;8.646;2022-07-12T09:20:19;101360.06;;;34.44;nan
55685;BME280;41883;49.544;8.646;2022-07-12T09:22:51;101373.72;;;35.17;nan
55685;BME280;41883;49.544;8.646;2022-07-12T09:25:18;101366.41;;;35.64;nan
55685;BME280;41883;49.544;8.646;2022-07-12T09:27:54;101365.06;;;35.94;nan
55685;BME280;41883;49.544;8.646;2022-07-12T09:30:20;101354.94;;;36.50;nan
55685;BME280;41883;49.544;8.646;2022-07-12T09:33:12;101355.56;;;36.61;nan
55685;BME280;41883;49.544;8.646;2022-07-12T09:39:07;101354.00;;;37.18;nan
55685;BME280;41883;49.544;8.646;2022-07-12T09:41:33;101350.56;;;37.13;nan
55685;BME280;41883;49.544;8.646;2022-07-12T09:43:58;101349.84;;;37.21;nan
55685;BME280;41883;49.544;8.646;2022-07-12T09:46:24;101356.22;;;37.75;nan
55685;BME280;41883;49.544;8.646;2022-07-12T09:48:50;101351.13;;;37.60;nan
55685;BME280;41883;49.544;8.646;2022-07-12T09:51:16;101353.13;;;37.99;nan
55685;BME280;41883;49.544;8.646;2022-07-12T09:53:47;101347.25;;;38.23;nan
55685;BME280;41883;49.544;8.646;2022-07-12T09:56:14;101343.44;;;38.51;nan
55685;BME280;41883;49.544;8.646;2022-07-12T09:58:53;101345.66;;;38.97;nan
55685;BME280;41883;49.544;8.646;2022-07-12T10:01:20;101345.50;;;39.20;nan
55685;BME280;41883;49.544;8.646;2022-07-12T10:03:47;101347.91;;;39.30;nan
55685;BME280;41883;49.544;8.646;2022-07-12T10:06:16;101344.66;;;39.28;nan
55685;BME280;41883;49.544;8.646;2022-07-12T10:08:47;101349.25;;;39.24;nan
55685;BME280;41883;49.544;8.646;2022-07-12T10:11:13;101352.28;;;38.30;nan
55685;BME280;41883;49.544;8.646;2022-07-12T10:13:39;101352.38;;;38.08;nan
55685;BME280;41883;49.544;8.646;2022-07-12T10:16:05;101349.34;;;38.75;nan
55685;BME280;41883;49.544;8.646;2022-07-12T10:18:33;101350.97;;;38.67;nan
55685;BME280;41883;49.544;8.646;2022-07-12T10:20:58;101353.84;;;38.05;nan
55685;BME280;41883;49.544;8.646;2022-07-12T10:23:27;101356.47;;;37.88;nan
55685;BME280;41883;49.544;8.646;2022-07-12T10:25:52;101347.22;;;38.55;nan
55685;BME280;41883;49.544;8.646;2022-07-12T10:28:19;101354.75;;;39.06;nan
55685;BME280;41883;49.544;8.646;2022-07-12T10:30:46;101362.91;;;39.38;nan
55685;BME280;41883;49.544;8.646;2022-07-12T10:33:23;101357.63;;;39.88;nan
55685;BME280;41883;49.544;8.646;2022-07-12T10:35:58;101347.75;;;40.17;nan
55685;BME280;41883;49.544;8.646;2022-07-12T10:38:23;101349.56;;;40.43;nan
55685;BME280;41883;49.544;8.646;2022-07-12T10:40:50;101345.72;;;40.35;nan
55685;BME280;41883;49.544;8.646;2022-07-12T10:43:18;101342.19;;;40.17;nan
55685;BME280;41883;49.544;8.646;2022-07-12T10:45:45;101338.97;;;40.45;nan
55685;BME280;41883;49.544;8.646;2022-07-12T10:53:30;101337.66;;;41.68;nan
55685;BME280;41883;49.544;8.646;2022-07-12T10:58:30;101340.41;;;40.51;nan
55685;BME280;41883;49.544;8.646;2022-07-12T11:00:57;101341.84;;;40.19;nan
55685;BME280;41883;49.544;8.646;2022-07-12T11:03:23;101345.09;;;39.74;nan
55685;BME280;41883;49.544;8.646;2022-07-12T11:05:49;101344.16;;;39.35;nan
55685;BME280;41883;49.544;8.646;2022-07-12T11:08:15;101345.63;;;39.67;nan
55685;BME280;41883;49.544;8.646;2022-07-12T11:10:54;101331.59;;;41.00;nan
55685;BME280;41883;49.544;8.646;2022-07-12T11:13:24;101336.28;;;41.62;nan
55685;BME280;41883;49.544;8.646;2022-07-12T11:15:59;101334.38;;;42.12;nan
55685;BME280;41883;49.544;8.646;2022-07-12T11:18:29;101330.47;;;41.55;nan
55685;BME280;41883;49.544;8.646;2022-07-12T11:20:57;101332.28;;;41.96;nan
55685;BME280;41883;49.544;8.646;2022-07-12T11:23:24;101325.13;;;42.08;nan
55685;BME280;41883;49.544;8.646;2022-07-12T11:25:54;101338.31;;;41.53;nan
55685;BME280;41883;49.544;8.646;2022-07-12T11:28:20;101335.22;;;41.67;nan
55685;BME280;41883;49.544;8.646;2022-07-12T11:30:52;101329.34;;;41.35;nan
55685;BME280;41883;49.544;8.646;2022-07-12T11:33:18;101326.53;;;42.38;nan
55685;BME280;41883;49.544;8.646;2022-07-12T11:35:44;101321.19;;;41.96;nan
55685;BME280;41883;49.544;8.646;2022-07-12T11:38:10;101322.53;;;41.45;nan
55685;BME280;41883;49.544;8.646;2022-07-12T11:40:35;101316.41;;;41.97;nan
55685;BME280;41883;49.544;8.646;2022-07-12T11:43:02;101313.03;;;41.33;nan
55685;BME280;41883;49.544;8.646;2022-07-12T11:45:29;101313.50;;;41.93;nan
55685;BME280;41883;49.544;8.646;2022-07-12T11:47:57;101306.44;;;42.98;nan
55685;BME280;41883;49.544;8.646;2022-07-12T11:50:22;101311.78;;;43.03;nan
55685;BME280;41883;49.544;8.646;2022-07-12T11:52:48;101307.22;;;43.11;nan
55685;BME280;41883;49.544;8.646;2022-07-12T11:55:14;101304.94;;;43.29;nan
55685;BME280;41883;49.544;8.646;2022-07-12T11:57:39;101305.19;;;43.67;nan
55685;BME280;41883;49.544;8.646;2022-07-12T12:00:21;101316.47;;;43.59;nan
55685;BME280;41883;49.544;8.646;2022-07-12T12:02:51;101318.72;;;43.53;nan
55685;BME280;41883;49.544;8.646;2022-07-12T12:05:17;101313.19;;;44.01;nan
55685;BME280;41883;49.544;8.646;2022-07-12T12:07:42;101305.16;;;43.83;nan
55685;BME280;41883;49.544;8.646;2022-07-12T12:10:17;101297.00;;;43.15;nan
55685;BME280;41883;49.544;8.646;2022-07-12T12:15:14;101282.47;;;42.28;nan
55685;BME280;41883;49.544;8.646;2022-07-12T12:20:19;101270.22;;;42.05;nan
55685;BME280;41883;49.544;8.646;2022-07-12T12:22:46;101278.69;;;41.96;nan
55685;BME280;41883;49.544;8.646;2022-07-12T12:25:13;101280.75;;;41.74;nan
55685;BME280;41883;49.544;8.646;2022-07-12T12:30:15;101281.66;;;39.60;nan
55685;BME280;41883;49.544;8.646;2022-07-12T12:32:51;101279.94;;;38.94;nan
55685;BME280;41883;49.544;8.646;2022-07-12T12:35:19;101282.72;;;38.19;nan
55685;BME280;41883;49.544;8.646;2022-07-12T12:37:54;101273.47;;;37.30;nan
55685;BME280;41883;49.544;8.646;2022-07-12T12:40:24;101271.03;;;36.70;nan
55685;BME280;41883;49.544;8.646;2022-07-12T12:42:50;101264.63;;;35.78;nan
55685;BME280;41883;49.544;8.646;2022-07-12T12:45:24;101262.31;;;35.52;nan
55685;BME280;41883;49.544;8.646;2022-07-12T12:48:03;101266.94;;;35.24;nan
55685;BME280;41883;49.544;8.646;2022-07-12T12:50:43;101262.53;;;35.04;nan
55685;BME280;41883;49.544;8.646;2022-07-12T12:53:22;101257.03;;;35.04;nan
55685;BME280;41883;49.544;8.646;2022-07-12T12:55:50;101246.97;;;34.80;nan
55685;BME280;41883;49.544;8.646;2022-07-12T12:58:17;101249.69;;;34.42;nan
55685;BME280;41883;49.544;8.646;2022-07-12T13:00:45;101249.09;;;33.97;nan
55685;BME280;41883;49.544;8.646;2022-07-12T13:03:12;101251.84;;;33.39;nan
55685;BME280;41883;49.544;8.646;2022-07-12T13:05:39;101250.75;;;33.00;nan
55685;BME280;41883;49.544;8.646;2022-07-12T13:08:06;101239.78;;;32.61;nan
55685;BME280;41883;49.544;8.646;2022-07-12T13:10:32;101237.22;;;32.15;nan
55685;BME280;41883;49.544;8.646;2022-07-12T13:12:58;101244.69;;;31.99;nan
55685;BME280;41883;49.544;8.646;2022-07-12T13:15:26;101249.91;;;31.65;nan
55685;BME280;41883;49.544;8.646;2022-07-12T13:17:52;101243.38;;;31.45;nan
55685;BME280;41883;49.544;8.646;2022-07-12T13:20:18;101243.38;;;31.40;nan
55685;BME280;41883;49.544;8.646;2022-07-12T13:22:43;101242.81;;;31.28;nan
55685;BME280;41883;49.544;8.646;2022-07-12T13:25:10;101246.63;;;31.17;nan
55685;BME280;41883;49.544;8.646;2022-07-12T13:27:37;101243.34;;;31.09;nan